Time;durP1;ratioP1;P1;durP2;ratioP2;P2;SDS_P1;SDS_P2;PMS_P1;PMS_P2;Temp;Humidity;BMP_temperature;BMP_pressure;BME280_temperature;BME280_humidity;BME280_pressure;Samples;Min_cycle;Max_cycle;Signal;HPM_P1;HPM_P2
2022/10/12 00:01:01;;;;;;;13.03;4.20;;;;;;;5.20;100.00;100929.09;5011669;28;20233;-64
2022/10/12 00:03:26;;;;;;;8.27;3.63;;;;;;;5.09;100.00;100934.41;5022272;28;20199;-65
2022/10/12 00:06:08;;;;;;;7.30;3.50;;;;;;;5.11;100.00;100931.81;5013739;28;20233;-64
2022/10/12 00:08:35;;;;;;;9.27;4.00;;;;;;;5.09;100.00;100925.91;5000329;28;20179;-64
2022/10/12 00:11:01;;;;;;;9.50;4.03;;;;;;;5.21;100.00;100927.38;4995743;28;20241;-64
2022/10/12 00:13:26;;;;;;;12.47;3.23;;;;;;;5.10;100.00;100930.16;5018135;28;20191;-64
2022/10/12 00:15:52;;;;;;;8.13;3.73;;;;;;;5.14;100.00;100930.03;5006724;28;20183;-65
2022/10/12 00:18:17;;;;;;;10.23;3.73;;;;;;;5.14;100.00;100924.13;5007307;28;20179;-64
2022/10/12 00:20:42;;;;;;;10.17;3.60;;;;;;;5.10;100.00;100927.59;5008979;28;20229;-64
2022/10/12 00:23:08;;;;;;;10.77;3.57;;;;;;;5.16;100.00;100930.88;5024089;28;20182;-64
2022/10/12 00:25:38;;;;;;;10.70;3.87;;;;;;;5.11;100.00;100926.72;5011835;28;20185;-64
2022/10/12 00:28:04;;;;;;;9.37;3.13;;;;;;;5.10;100.00;100928.44;5012583;28;20194;-63
2022/10/12 00:30:29;;;;;;;8.03;3.20;;;;;;;5.04;100.00;100927.72;5005334;28;20665;-63
2022/10/12 00:32:56;;;;;;;7.77;3.60;;;;;;;5.01;100.00;100923.47;5025478;28;20190;-64
2022/10/12 00:35:21;;;;;;;9.00;3.27;;;;;;;4.99;100.00;100927.78;5011994;28;20194;-64
2022/10/12 00:37:46;;;;;;;10.73;3.80;;;;;;;4.99;100.00;100920.97;5011925;28;20191;-69
2022/10/12 00:40:12;;;;;;;8.23;3.50;;;;;;;5.07;100.00;100925.09;5003338;28;20189;-64
2022/10/12 00:42:37;;;;;;;9.00;3.20;;;;;;;4.93;100.00;100926.19;5012305;28;20666;-64
2022/10/12 00:45:03;;;;;;;9.80;4.00;;;;;;;4.93;100.00;100926.19;5012918;28;20226;-64
2022/10/12 00:47:35;;;;;;;10.20;3.70;;;;;;;4.90;100.00;100925.38;5012011;28;20312;-63
2022/10/12 00:50:32;;;;;;;8.37;3.27;;;;;;;4.82;100.00;100928.09;5011960;28;20225;-63
2022/10/12 00:53:13;;;;;;;7.20;3.57;;;;;;;4.78;100.00;100932.38;4948338;28;20291;-63
2022/10/12 00:55:45;;;;;;;8.33;3.63;;;;;;;4.89;100.00;100922.00;4941821;29;20200;-63
2022/10/12 00:58:11;;;;;;;7.80;4.07;;;;;;;4.89;100.00;100931.34;4948749;28;20188;-65
2022/10/12 01:00:37;;;;;;;13.47;3.43;;;;;;;4.84;100.00;100922.09;4943916;28;20268;-64
2022/10/12 01:03:05;;;;;;;11.03;3.70;;;;;;;4.72;100.00;100929.13;4936533;29;20204;-64
2022/10/12 01:05:30;;;;;;;6.40;3.60;;;;;;;4.63;100.00;100925.84;4949356;28;20327;-63
2022/10/12 01:07:55;;;;;;;9.03;3.70;;;;;;;4.57;100.00;100923.41;4937551;28;20266;-63
2022/10/12 01:10:20;;;;;;;8.87;3.97;;;;;;;4.62;100.00;100930.97;4938858;28;20206;-63
2022/10/12 01:12:48;;;;;;;11.90;3.80;;;;;;;4.68;100.00;100924.06;4939078;29;20216;-65
2022/10/12 01:15:14;;;;;;;7.83;3.37;;;;;;;4.71;100.00;100929.97;4935822;28;20204;-63
2022/10/12 01:17:51;;;;;;;9.50;3.67;;;;;;;4.67;100.00;100927.47;4936291;29;20208;-63
2022/10/12 01:20:38;;;;;;;7.33;3.20;;;;;;;4.63;100.00;100927.56;4943313;28;20420;-64
2022/10/12 01:23:15;;;;;;;10.87;3.57;;;;;;;4.65;100.00;100928.38;4960433;28;20192;-64
2022/10/12 01:26:15;;;;;;;10.60;3.83;;;;;;;4.64;100.00;100932.63;4941130;28;20278;-66
2022/10/12 01:28:53;;;;;;;10.83;3.80;;;;;;;4.68;100.00;100933.41;4984943;28;20223;-66
2022/10/12 01:31:46;;;;;;;9.13;3.47;;;;;;;4.59;100.00;100921.69;5012496;28;20225;-64
2022/10/12 01:34:21;;;;;;;8.23;3.47;;;;;;;4.67;100.00;100927.47;5010635;28;20273;-64
2022/10/12 01:37:28;;;;;;;8.23;3.97;;;;;;;4.55;100.00;100926.84;5011606;28;20197;-64
2022/10/12 01:39:58;;;;;;;6.93;3.13;;;;;;;4.59;100.00;100918.25;5012217;28;20341;-63
2022/10/12 01:42:31;;;;;;;12.63;3.90;;;;;;;4.57;100.00;100914.94;5001477;28;20309;-64
2022/10/12 01:45:05;;;;;;;8.33;3.50;;;;;;;4.50;100.00;100916.72;5010706;28;20237;-64
2022/10/12 01:47:32;;;;;;;7.60;3.77;;;;;;;4.52;100.00;100913.28;5010991;28;20789;-63
2022/10/12 01:49:59;;;;;;;10.90;3.57;;;;;;;4.57;100.00;100917.47;5011149;28;20329;-65
2022/10/12 01:52:29;;;;;;;4.20;3.13;;;;;;;4.50;100.00;100909.94;5001760;28;20249;-64
2022/10/12 01:55:06;;;;;;;10.60;4.30;;;;;;;4.45;100.00;100916.81;4994247;28;20270;-65
2022/10/12 01:58:00;;;;;;;7.87;3.73;;;;;;;4.34;100.00;100916.97;5006486;28;20193;-67
2022/10/12 02:00:25;;;;;;;9.07;3.50;;;;;;;4.52;100.00;100907.34;5004031;28;20233;-63
2022/10/12 02:03:13;;;;;;;7.40;3.20;;;;;;;4.49;100.00;100907.38;5024539;28;20210;-66
2022/10/12 02:05:54;;;;;;;9.70;3.50;;;;;;;4.41;100.00;100909.22;5013280;28;20616;-63
2022/10/12 02:08:23;;;;;;;7.87;3.00;;;;;;;4.43;100.00;100910.03;5014979;28;20719;-64
2022/10/12 02:10:56;;;;;;;10.27;4.10;;;;;;;4.41;100.00;100907.50;5008288;28;20279;-64
2022/10/12 02:13:24;;;;;;;8.47;3.63;;;;;;;4.38;100.00;100904.16;5010825;28;20198;-64
2022/10/12 02:15:52;;;;;;;8.47;3.47;;;;;;;4.40;100.00;100902.44;5003510;28;20175;-63
2022/10/12 02:18:20;;;;;;;16.63;5.03;;;;;;;4.30;100.00;100896.66;5005135;28;20194;-63
2022/10/12 02:20:50;;;;;;;5.57;3.43;;;;;;;4.32;100.00;100898.31;5007852;28;20301;-63
2022/10/12 02:23:17;;;;;;;11.17;4.03;;;;;;;4.27;100.00;100895.00;5015051;28;20186;-64
2022/10/12 02:25:43;;;;;;;8.53;4.13;;;;;;;4.29;100.00;100892.44;5015494;28;20273;-64
2022/10/12 02:28:13;;;;;;;8.57;3.47;;;;;;;4.31;100.00;100891.53;5014526;28;20627;-64
2022/10/12 02:30:52;;;;;;;9.13;4.13;;;;;;;4.24;100.00;100887.41;5007778;28;20225;-63
2022/10/12 02:33:44;;;;;;;11.53;3.73;;;;;;;4.28;100.00;100885.66;5014885;28;20192;-64
2022/10/12 02:36:15;;;;;;;12.57;3.57;;;;;;;4.24;100.00;100884.84;5014266;28;20190;-63
2022/10/12 02:38:49;;;;;;;8.90;3.70;;;;;;;4.19;100.00;100891.72;5014446;28;20228;-64
2022/10/12 02:41:22;;;;;;;9.17;3.63;;;;;;;4.16;100.00;100881.59;5008033;28;20240;-63
2022/10/12 02:43:58;;;;;;;11.23;4.10;;;;;;;4.08;100.00;100879.19;5014460;28;20218;-63
2022/10/12 02:46:26;;;;;;;9.67;3.60;;;;;;;4.07;100.00;100882.59;5014182;28;20222;-63
2022/10/12 02:48:55;;;;;;;7.47;3.67;;;;;;;4.09;100.00;100880.00;5015665;28;20261;-65
2022/10/12 02:51:22;;;;;;;8.73;3.90;;;;;;;4.11;100.00;100880.84;5007191;28;20309;-63
2022/10/12 02:53:47;;;;;;;6.40;3.57;;;;;;;4.13;100.00;100872.31;5014085;28;20760;-64
2022/10/12 02:56:14;;;;;;;6.47;3.47;;;;;;;4.15;100.00;100872.28;5015065;28;20269;-64
2022/10/12 02:58:44;;;;;;;8.70;3.83;;;;;;;4.10;100.00;100879.97;5014399;28;20229;-63
2022/10/12 03:01:10;;;;;;;8.20;4.23;;;;;;;4.08;100.00;100871.53;4997185;28;20244;-63
2022/10/12 03:03:35;;;;;;;8.47;4.23;;;;;;;4.07;100.00;100872.41;5024495;28;20179;-64
2022/10/12 03:06:01;;;;;;;7.07;3.60;;;;;;;3.97;100.00;100875.94;5030524;28;20301;-73
2022/10/12 03:08:26;;;;;;;10.23;4.07;;;;;;;3.93;100.00;100871.75;5015315;28;20189;-65
2022/10/12 03:10:51;;;;;;;7.40;4.17;;;;;;;3.89;100.00;100878.59;5011702;28;20229;-64
2022/10/12 03:13:17;;;;;;;9.33;4.40;;;;;;;3.80;100.00;100876.19;5024222;28;20185;-64
2022/10/12 03:15:42;;;;;;;8.73;3.37;;;;;;;3.99;100.00;100875.03;5004135;28;20266;-64
2022/10/12 03:18:07;;;;;;;6.50;2.93;;;;;;;3.98;100.00;100870.84;5008232;28;20180;-63
2022/10/12 03:20:32;;;;;;;7.60;3.57;;;;;;;3.93;100.00;100876.84;5004320;28;20217;-63
2022/10/12 03:22:58;;;;;;;8.03;3.93;;;;;;;3.93;100.00;100879.38;5014060;28;20195;-63
2022/10/12 03:25:23;;;;;;;10.47;4.20;;;;;;;3.94;100.00;100873.44;5014620;28;20174;-63
2022/10/12 03:27:48;;;;;;;8.20;3.93;;;;;;;3.84;100.00;100880.38;5015090;28;20203;-63
2022/10/12 03:30:14;;;;;;;10.23;4.43;;;;;;;3.94;100.00;100881.06;4985124;28;20630;-63
2022/10/12 03:32:39;;;;;;;7.07;3.53;;;;;;;3.86;100.00;100876.94;5013136;28;20189;-63
2022/10/12 03:35:05;;;;;;;9.43;3.67;;;;;;;3.90;100.00;100877.72;5013034;28;20578;-63
2022/10/12 03:37:30;;;;;;;7.57;4.00;;;;;;;3.95;100.00;100880.22;5013501;28;20662;-63
2022/10/12 03:39:56;;;;;;;9.87;3.60;;;;;;;3.80;100.00;100871.94;5014714;28;20631;-63
2022/10/12 03:42:21;;;;;;;7.70;4.00;;;;;;;3.87;100.00;100872.69;5019420;28;20675;-66
2022/10/12 03:44:46;;;;;;;10.13;3.97;;;;;;;3.90;100.00;100882.81;5014227;28;20190;-65
2022/10/12 03:47:12;;;;;;;8.93;4.20;;;;;;;3.86;100.00;100882.03;5013381;28;20748;-64
2022/10/12 03:49:37;;;;;;;9.57;4.47;;;;;;;3.85;100.00;100877.78;5014540;28;20198;-63
2022/10/12 03:52:02;;;;;;;9.17;3.90;;;;;;;3.95;100.00;100880.22;5006448;28;20222;-64
2022/10/12 03:54:28;;;;;;;8.80;4.00;;;;;;;3.81;100.00;100882.97;5013937;28;20188;-64
2022/10/12 03:56:53;;;;;;;8.37;3.93;;;;;;;3.83;100.00;100881.22;5014453;28;20179;-64
2022/10/12 03:59:18;;;;;;;8.10;4.10;;;;;;;3.84;100.00;100872.72;5014326;28;20241;-64
2022/10/12 04:01:43;;;;;;;9.27;4.33;;;;;;;3.87;100.00;100876.06;5008002;28;20662;-63
2022/10/12 04:04:09;;;;;;;11.30;3.83;;;;;;;3.86;100.00;100882.03;5011392;28;20206;-64
2022/10/12 04:06:35;;;;;;;6.60;4.00;;;;;;;3.86;100.00;100879.47;5012945;28;20195;-64
2022/10/12 04:09:00;;;;;;;12.17;4.37;;;;;;;3.84;100.00;100885.44;5014397;28;20517;-63
2022/10/12 04:11:25;;;;;;;11.43;3.97;;;;;;;3.88;100.00;100879.44;5005996;28;20225;-63
2022/10/12 04:13:51;;;;;;;8.07;4.43;;;;;;;3.85;100.00;100875.25;5012637;28;20281;-63
2022/10/12 04:16:16;;;;;;;7.37;3.77;;;;;;;3.79;100.00;100879.59;5002031;28;20577;-65
2022/10/12 04:18:41;;;;;;;11.60;3.63;;;;;;;3.80;100.00;100879.56;5009061;28;20269;-66
2022/10/12 04:21:13;;;;;;;9.37;3.73;;;;;;;3.76;100.00;100872.84;5012364;28;20632;-64
2022/10/12 04:23:39;;;;;;;7.63;3.93;;;;;;;3.67;100.00;100881.44;5012541;28;20190;-64
2022/10/12 04:26:06;;;;;;;8.83;4.67;;;;;;;3.80;100.00;100881.28;5012015;28;20202;-63
2022/10/12 04:28:31;;;;;;;7.57;4.20;;;;;;;3.78;100.00;100870.28;5012657;28;20721;-65
2022/10/12 04:30:56;;;;;;;9.67;3.97;;;;;;;3.79;100.00;100875.31;5010651;28;20226;-64
2022/10/12 04:33:22;;;;;;;5.90;3.73;;;;;;;3.87;100.00;100876.06;5021845;28;20190;-64
2022/10/12 04:35:47;;;;;;;9.70;4.13;;;;;;;3.81;100.00;100878.69;5013427;28;20612;-64
2022/10/12 04:38:12;;;;;;;7.13;3.63;;;;;;;3.69;100.00;100881.41;5013381;28;20206;-63
2022/10/12 04:40:38;;;;;;;9.63;4.30;;;;;;;3.70;100.00;100886.47;5007858;28;20217;-63
2022/10/12 04:43:03;;;;;;;8.43;3.90;;;;;;;3.72;100.00;100884.75;5024084;28;20324;-63
2022/10/12 04:45:28;;;;;;;8.33;4.40;;;;;;;3.71;100.00;100888.16;5011552;28;20317;-64
2022/10/12 04:47:54;;;;;;;13.03;4.50;;;;;;;3.54;100.00;100890.91;5012983;28;20285;-63
2022/10/12 04:50:19;;;;;;;6.90;3.83;;;;;;;3.68;100.00;100885.69;5005200;28;20214;-63
2022/10/12 04:52:44;;;;;;;6.70;3.40;;;;;;;3.57;100.00;100897.66;5011972;28;20186;-63
2022/10/12 04:55:10;;;;;;;8.60;3.63;;;;;;;3.63;100.00;100894.22;5011673;28;20186;-63
2022/10/12 04:57:35;;;;;;;7.77;3.47;;;;;;;3.63;100.00;100892.50;5013368;28;20190;-63
2022/10/12 05:00:00;;;;;;;7.00;3.13;;;;;;;3.57;100.00;100894.28;5014910;28;20646;-63
2022/10/12 05:02:26;;;;;;;5.90;3.10;;;;;;;3.54;100.00;100890.91;5022303;28;20227;-63
2022/10/12 05:04:51;;;;;;;13.63;3.97;;;;;;;3.46;100.00;100887.66;5009956;28;20193;-63
2022/10/12 05:07:17;;;;;;;8.07;3.33;;;;;;;3.47;100.00;100891.84;5013021;28;20211;-64
2022/10/12 05:09:42;;;;;;;6.97;3.60;;;;;;;3.52;100.00;100889.25;5011452;28;20197;-64
2022/10/12 05:12:07;;;;;;;6.40;3.40;;;;;;;3.44;100.00;100888.53;5018203;28;20225;-63
2022/10/12 05:14:33;;;;;;;6.17;3.20;;;;;;;3.50;100.00;100888.47;5012189;28;20272;-64
2022/10/12 05:16:58;;;;;;;5.30;3.30;;;;;;;3.40;100.00;100895.34;4997517;28;20232;-63
2022/10/12 05:19:23;;;;;;;10.67;3.80;;;;;;;3.47;100.00;100886.75;5011707;28;20186;-63
2022/10/12 05:21:48;;;;;;;9.13;3.30;;;;;;;3.44;100.00;100897.00;5016252;28;20267;-65
2022/10/12 05:24:14;;;;;;;7.10;3.70;;;;;;;3.43;100.00;100889.38;5011014;28;20540;-63
2022/10/12 05:26:39;;;;;;;12.23;4.00;;;;;;;3.33;100.00;100896.28;5012805;28;20206;-63
2022/10/12 05:29:04;;;;;;;10.53;3.50;;;;;;;3.57;100.00;100891.75;5012655;28;20590;-63
2022/10/12 05:31:30;;;;;;;7.13;3.07;;;;;;;3.67;100.00;100894.16;5014039;28;20230;-64
2022/10/12 05:33:55;;;;;;;7.53;3.73;;;;;;;3.62;100.00;100892.53;5016349;28;20205;-63
2022/10/12 05:36:20;;;;;;;5.00;3.33;;;;;;;3.66;100.00;100895.03;5012376;28;20194;-63
2022/10/12 05:38:46;;;;;;;7.23;3.53;;;;;;;3.63;100.00;100892.50;5011377;28;20283;-64
2022/10/12 05:41:11;;;;;;;7.97;3.47;;;;;;;3.75;100.00;100890.69;5011465;28;20228;-64
2022/10/12 05:43:36;;;;;;;7.60;3.93;;;;;;;3.75;100.00;100886.41;5011300;28;20186;-66
2022/10/12 05:46:01;;;;;;;6.10;3.47;;;;;;;3.68;100.00;100879.72;5010001;28;20280;-65
2022/10/12 05:48:27;;;;;;;17.77;3.87;;;;;;;3.82;100.00;100882.06;5012280;28;20195;-64
2022/10/12 05:50:53;;;;;;;6.47;3.23;;;;;;;3.85;100.00;100880.34;5008387;28;20273;-64
2022/10/12 05:53:22;;;;;;;11.87;3.70;;;;;;;3.82;100.00;100882.94;5010853;28;20275;-64
2022/10/12 05:55:52;;;;;;;7.63;4.03;;;;;;;3.79;100.00;100880.41;5008730;28;20185;-64
2022/10/12 05:58:18;;;;;;;8.90;3.60;;;;;;;3.89;100.00;100878.59;5019571;28;20192;-64
2022/10/12 06:00:43;;;;;;;10.70;5.07;;;;;;;3.89;100.00;100876.03;5007259;28;20226;-67
2022/10/12 06:03:08;;;;;;;7.07;4.40;;;;;;;3.94;100.00;100874.25;5022237;28;20210;-64
2022/10/12 06:05:33;;;;;;;7.80;4.53;;;;;;;3.98;100.00;100883.56;5011775;28;20190;-64
2022/10/12 06:07:59;;;;;;;14.23;4.40;;;;;;;4.06;100.00;100882.56;5011702;28;20206;-64
2022/10/12 06:10:24;;;;;;;9.50;4.80;;;;;;;4.07;100.00;100882.59;5005214;28;20660;-64
2022/10/12 06:12:50;;;;;;;8.07;4.03;;;;;;;4.18;100.00;100887.50;5010630;28;20627;-64
2022/10/12 06:15:15;;;;;;;9.30;4.10;;;;;;;4.24;100.00;100884.03;5009492;28;20191;-64
2022/10/12 06:17:40;;;;;;;8.93;4.30;;;;;;;4.13;100.00;100884.19;4998929;28;20270;-64
2022/10/12 06:20:06;;;;;;;8.00;3.90;;;;;;;4.31;100.00;100890.69;5002063;28;20239;-64
2022/10/12 06:22:31;;;;;;;8.03;3.93;;;;;;;4.43;100.00;100884.56;5010810;28;20190;-66
2022/10/12 06:24:57;;;;;;;7.60;3.93;;;;;;;4.46;100.00;100874.31;5011642;28;20183;-64
2022/10/12 06:27:24;;;;;;;8.87;3.70;;;;;;;4.55;100.00;100879.25;5011958;28;20198;-64
2022/10/12 06:29:49;;;;;;;10.90;3.63;;;;;;;4.75;100.00;100880.63;5012018;28;20265;-65
2022/10/12 06:32:14;;;;;;;7.70;3.70;;;;;;;4.88;100.00;100882.09;5017031;28;20506;-64
2022/10/12 06:34:39;;;;;;;9.63;3.63;;;;;;;5.00;100.00;100884.41;5010268;28;20183;-64
2022/10/12 06:37:05;;;;;;;11.00;3.43;;;;;;;4.94;100.00;100878.59;5010942;28;20229;-64
2022/10/12 06:39:30;;;;;;;11.90;3.50;;;;;;;5.11;100.00;100870.59;5011876;28;20203;-64
2022/10/12 06:41:55;;;;;;;7.57;4.07;;;;;;;5.37;100.00;100876.91;5016660;28;20226;-64
2022/10/12 06:44:21;;;;;;;5.93;3.70;;;;;;;5.57;100.00;100879.88;5010719;28;20642;-64
2022/10/12 06:46:47;;;;;;;7.53;3.73;;;;;;;6.17;100.00;100877.72;5012030;28;20242;-66
2022/10/12 06:49:13;;;;;;;7.70;3.13;;;;;;;7.44;100.00;100879.53;5010709;28;20179;-65
2022/10/12 06:51:38;;;;;;;4.70;3.00;;;;;;;8.97;100.00;100869.56;5006496;28;20223;-63
2022/10/12 06:54:03;;;;;;;4.17;2.80;;;;;;;10.29;100.00;100852.53;5011587;28;20276;-63
2022/10/12 06:56:29;;;;;;;6.87;2.80;;;;;;;10.13;100.00;100854.91;5017978;28;20190;-64
2022/10/12 06:58:55;;;;;;;6.23;2.70;;;;;;;10.19;100.00;100864.09;5009804;28;20210;-65
2022/10/12 07:01:20;;;;;;;8.77;3.23;;;;;;;11.01;100.00;100859.84;4993742;28;20701;-66
2022/10/12 07:03:46;;;;;;;5.07;2.77;;;;;;;11.67;100.00;100853.44;5000243;28;20171;-64
2022/10/12 07:06:12;;;;;;;6.97;2.83;;;;;;;12.25;93.16;100853.25;5011523;28;20542;-63
2022/10/12 07:08:40;;;;;;;8.20;2.83;;;;;;;11.89;93.87;100853.25;5004780;28;20174;-63
2022/10/12 07:11:07;;;;;;;5.50;2.93;;;;;;;12.54;88.76;100856.09;4995720;28;20500;-63
2022/10/12 07:13:33;;;;;;;5.40;3.07;;;;;;;13.09;81.67;100854.16;5011093;28;20202;-63
2022/10/12 07:15:59;;;;;;;5.20;2.63;;;;;;;12.83;82.29;100856.34;5000375;28;20225;-64
2022/10/12 07:18:24;;;;;;;8.47;3.17;;;;;;;12.11;87.18;100863.41;5019576;28;20646;-69
2022/10/12 07:20:50;;;;;;;8.90;3.30;;;;;;;11.37;93.80;100864.25;4992205;28;20230;-63
2022/10/12 07:23:16;;;;;;;9.27;3.43;;;;;;;11.23;97.37;100867.47;5013412;28;20202;-63
2022/10/12 07:25:48;;;;;;;9.10;3.20;;;;;;;11.22;97.70;100873.50;4998317;28;20213;-63
2022/10/12 07:28:13;;;;;;;10.93;3.50;;;;;;;11.04;99.88;100875.16;5007949;28;20190;-63
2022/10/12 07:30:39;;;;;;;7.73;3.20;;;;;;;10.82;100.00;100876.09;4980298;28;20214;-63
2022/10/12 07:33:04;;;;;;;11.13;4.00;;;;;;;10.44;100.00;100873.41;5001257;28;20681;-63
2022/10/12 07:35:29;;;;;;;7.13;3.63;;;;;;;10.23;100.00;100877.66;4999519;28;20183;-63
2022/10/12 07:37:54;;;;;;;8.93;4.20;;;;;;;9.84;100.00;100885.16;4996353;28;20191;-65
2022/10/12 07:40:20;;;;;;;7.00;3.60;;;;;;;9.74;100.00;100885.59;5006114;28;20599;-63
2022/10/12 07:42:45;;;;;;;7.90;4.10;;;;;;;9.76;100.00;100884.66;5015692;28;20282;-64
2022/10/12 07:45:10;;;;;;;10.80;4.27;;;;;;;9.60;100.00;100888.66;5013747;28;20231;-63
2022/10/12 07:47:35;;;;;;;9.17;3.27;;;;;;;9.09;100.00;100893.97;5011248;28;20269;-66
2022/10/12 07:50:01;;;;;;;10.33;3.63;;;;;;;9.06;100.00;100890.66;5012637;28;20305;-67
2022/10/12 07:52:27;;;;;;;9.43;3.50;;;;;;;8.99;100.00;100890.03;5021695;28;20230;-68
2022/10/12 07:54:52;;;;;;;8.80;3.63;;;;;;;9.18;100.00;100893.63;5014820;28;20199;-68
2022/10/12 07:57:18;;;;;;;10.37;3.70;;;;;;;9.27;100.00;100886.47;5015006;28;20634;-69
2022/10/12 07:59:43;;;;;;;5.80;3.53;;;;;;;9.43;100.00;100882.44;5012889;28;20186;-68
2022/10/12 08:02:10;;;;;;;8.67;3.47;;;;;;;9.63;100.00;100883.44;5020767;28;20218;-66
2022/10/12 08:04:36;;;;;;;8.50;3.33;;;;;;;9.46;100.00;100878.94;5013601;28;20529;-68
2022/10/12 08:07:01;;;;;;;6.53;3.40;;;;;;;9.39;100.00;100880.03;5014228;28;20737;-68
2022/10/12 08:09:26;;;;;;;8.40;3.70;;;;;;;9.37;100.00;100880.09;5013255;28;20189;-68
2022/10/12 08:11:51;;;;;;;9.30;3.80;;;;;;;9.52;100.00;100883.84;5017188;28;20229;-68
2022/10/12 08:14:17;;;;;;;9.13;3.67;;;;;;;9.66;100.00;100885.88;5002639;28;20191;-67
2022/10/12 08:16:43;;;;;;;11.30;3.53;;;;;;;9.89;100.00;100885.00;4999035;28;20180;-70
2022/10/12 08:19:09;;;;;;;8.17;3.47;;;;;;;9.78;100.00;100882.84;5000809;28;20175;-67
2022/10/12 08:21:34;;;;;;;5.70;3.47;;;;;;;9.84;100.00;100874.88;5015017;28;20233;-70
2022/10/12 08:23:59;;;;;;;10.37;3.50;;;;;;;9.99;100.00;100881.16;5012205;28;20181;-69
2022/10/12 08:26:24;;;;;;;9.83;3.80;;;;;;;10.26;100.00;100877.56;5013926;28;20784;-68
2022/10/12 08:28:50;;;;;;;7.47;3.43;;;;;;;10.22;100.00;100870.84;5013529;28;20179;-68
2022/10/12 08:31:19;;;;;;;10.20;4.27;;;;;;;10.43;100.00;100872.59;5002663;28;20301;-68
2022/10/12 08:33:44;;;;;;;7.40;3.77;;;;;;;10.48;100.00;100874.94;5005057;28;20621;-69
2022/10/12 08:36:10;;;;;;;8.63;3.07;;;;;;;10.38;100.00;100874.53;5005353;28;20239;-69
2022/10/12 08:38:39;;;;;;;9.37;3.40;;;;;;;10.26;100.00;100878.38;4997761;28;20198;-69
2022/10/12 08:41:42;;;;;;;11.53;3.73;;;;;;;10.70;100.00;100874.06;4986165;28;20222;-68
2022/10/12 08:44:30;;;;;;;10.03;3.47;;;;;;;10.71;100.00;100866.25;5007677;28;20190;-68
2022/10/12 08:47:07;;;;;;;14.40;3.77;;;;;;;11.10;100.00;100867.16;5012269;28;20237;-69
2022/10/12 08:49:39;;;;;;;9.13;3.30;;;;;;;11.25;100.00;100870.78;5006819;28;20191;-67
2022/10/12 08:52:10;;;;;;;11.20;3.90;;;;;;;11.91;100.00;100859.19;4997583;28;20225;-68
2022/10/12 08:54:44;;;;;;;6.90;3.93;;;;;;;12.86;98.14;100863.09;5012126;28;20179;-68
2022/10/12 08:57:18;;;;;;;9.47;4.33;;;;;;;13.77;89.22;100860.00;5003372;28;20183;-69
2022/10/12 08:59:47;;;;;;;10.40;4.53;;;;;;;15.55;75.59;100852.94;5006105;28;20198;-70
2022/10/12 09:02:12;;;;;;;13.57;4.13;;;;;;;15.80;70.85;100848.75;5017873;28;20230;-64
2022/10/12 09:04:49;;;;;;;7.93;3.90;;;;;;;14.98;77.56;100866.81;5011535;28;20198;-64
2022/10/12 09:10:53;;;;;;;9.87;3.80;;;;;;;17.62;62.06;100860.78;4999749;28;20237;-65
2022/10/12 09:13:40;;;;;;;8.20;4.30;;;;;;;18.57;53.49;100865.94;5011317;28;20171;-65
2022/10/12 09:16:32;;;;;;;11.23;4.10;;;;;;;18.83;52.44;100866.53;4997884;28;20271;-66
2022/10/12 09:19:06;;;;;;;8.83;3.77;;;;;;;18.39;52.71;100865.53;5010649;28;20669;-64
2022/10/12 09:21:32;;;;;;;7.37;3.83;;;;;;;19.23;51.17;100867.84;4992002;28;20227;-67
2022/10/12 09:23:58;;;;;;;8.63;4.20;;;;;;;18.81;51.23;100867.59;4999032;28;20541;-76
2022/10/12 09:26:35;;;;;;;8.30;4.70;;;;;;;17.97;54.86;100862.59;4997242;28;20197;-72
2022/10/12 09:29:02;;;;;;;10.83;4.83;;;;;;;17.82;55.80;100867.94;5003883;28;20182;-72
2022/10/12 09:31:46;;;;;;;12.37;5.30;;;;;;;18.13;54.58;100867.50;4985945;28;20230;-70
2022/10/12 09:34:11;;;;;;;13.37;4.30;;;;;;;17.91;58.60;100862.09;5009420;28;20643;-68
2022/10/12 09:36:39;;;;;;;8.87;4.13;;;;;;;19.89;50.40;100850.47;4994583;28;20229;-68
2022/10/12 09:39:20;;;;;;;14.53;4.50;;;;;;;19.97;47.13;100853.25;5007044;28;20681;-68
2022/10/12 09:41:47;;;;;;;10.47;5.07;;;;;;;20.27;46.35;100860.34;4990583;28;20230;-66
2022/10/12 09:44:27;;;;;;;8.13;4.50;;;;;;;20.96;44.73;100852.81;5008310;28;20293;-65
2022/10/12 09:47:00;;;;;;;8.77;4.47;;;;;;;22.36;40.87;100857.00;5009730;28;20235;-63
2022/10/12 09:49:44;;;;;;;11.73;4.10;;;;;;;22.29;39.84;100858.53;5017287;28;20206;-63
2022/10/12 09:52:12;;;;;;;7.87;3.70;;;;;;;23.47;37.85;100859.69;5005896;28;20233;-64
2022/10/12 09:54:47;;;;;;;9.13;3.67;;;;;;;22.79;38.54;100863.50;5007311;28;20179;-65
2022/10/12 09:57:25;;;;;;;9.65;4.15;;;;;;;24.73;36.31;100855.16;4999126;28;20254;-65
2022/10/12 09:59:51;;;;;;;9.05;3.85;;;;;;;23.53;37.39;100853.81;4998007;28;20190;-66
2022/10/12 10:02:24;;;;;;;7.35;3.95;;;;;;;21.15;41.63;100856.44;5005098;28;20219;-64
2022/10/12 10:04:51;;;;;;;8.13;4.20;;;;;;;23.21;40.21;100852.53;4997625;28;20221;-66
2022/10/12 10:07:32;;;;;;;9.20;4.55;;;;;;;23.74;37.24;100857.13;5009541;28;20211;-65
2022/10/12 10:10:21;;;;;;;9.15;3.70;;;;;;;21.14;42.00;100854.81;5009120;28;20244;-67
2022/10/12 10:13:00;;;;;;;10.80;4.05;;;;;;;19.83;46.97;100850.00;4983911;28;20218;-67
2022/10/12 10:15:31;;;;;;;11.80;4.65;;;;;;;18.52;54.11;100865.47;4995697;28;20191;-66
2022/10/12 10:18:03;;;;;;;10.30;4.03;;;;;;;16.16;71.47;100856.88;4994921;28;20179;-67
2022/10/12 10:20:30;;;;;;;10.43;4.70;;;;;;;15.79;77.73;100853.13;4993481;28;20257;-65
2022/10/12 10:22:57;;;;;;;9.27;5.20;;;;;;;15.57;78.22;100852.84;4991661;28;20797;-66
2022/10/12 10:25:23;;;;;;;11.00;5.00;;;;;;;15.04;84.46;100850.91;4998062;28;20653;-67
2022/10/12 10:28:08;;;;;;;9.93;5.50;;;;;;;14.83;87.04;100853.91;5010236;28;20233;-67
2022/10/12 10:30:33;;;;;;;12.87;6.13;;;;;;;14.56;90.67;100855.50;5005735;28;20221;-67
2022/10/12 10:33:16;;;;;;;12.70;6.23;;;;;;;14.41;91.78;100847.72;5023090;28;20194;-67
2022/10/12 10:35:53;;;;;;;9.83;5.70;;;;;;;14.12;93.57;100849.44;5009681;28;20217;-67
2022/10/12 10:38:19;;;;;;;11.03;5.40;;;;;;;14.22;96.46;100852.31;5009765;28;20206;-65
2022/10/12 10:40:51;;;;;;;11.87;6.17;;;;;;;14.15;95.58;100850.09;5009228;28;20620;-65
2022/10/12 10:43:24;;;;;;;11.37;6.30;;;;;;;14.16;97.15;100843.97;5014089;28;20195;-65
2022/10/12 10:45:52;;;;;;;14.90;6.37;;;;;;;14.45;93.44;100844.03;5019196;28;20309;-65
2022/10/12 10:48:32;;;;;;;13.57;6.47;;;;;;;14.29;93.97;100843.25;5013340;28;20256;-66
2022/10/12 10:51:01;;;;;;;13.80;6.70;;;;;;;14.36;94.63;100842.81;5009180;28;20225;-65
2022/10/12 10:53:44;;;;;;;11.37;5.83;;;;;;;14.04;95.54;100845.53;5007821;28;20194;-64
2022/10/12 10:56:25;;;;;;;11.90;6.80;;;;;;;13.98;97.87;100851.03;5007143;28;20182;-65
2022/10/12 10:58:56;;;;;;;12.40;7.03;;;;;;;14.00;97.23;100835.44;4999069;28;20183;-65
2022/10/12 11:01:34;;;;;;;14.03;6.73;;;;;;;14.19;97.02;100835.22;4978507;28;20613;-65
2022/10/12 11:04:06;;;;;;;13.73;6.27;;;;;;;14.48;93.57;100836.09;4997797;28;20182;-66
2022/10/12 11:06:38;;;;;;;7.77;5.80;;;;;;;14.52;94.28;100836.72;5010712;28;20210;-64
2022/10/12 11:09:19;;;;;;;12.07;6.67;;;;;;;14.16;96.88;100819.84;5004891;28;20188;-65
2022/10/12 11:12:09;;;;;;;10.77;5.80;;;;;;;13.83;97.66;100831.22;4990526;28;20288;-65
2022/10/12 11:14:42;;;;;;;9.47;6.23;;;;;;;13.99;97.85;100828.59;5008322;28;20195;-65
2022/10/12 11:17:20;;;;;;;11.53;5.83;;;;;;;14.20;96.58;100824.78;4999594;28;20237;-65
2022/10/12 11:19:52;;;;;;;11.87;6.10;;;;;;;14.49;95.98;100832.56;4996039;28;20189;-64
2022/10/12 11:22:23;;;;;;;13.53;6.80;;;;;;;14.34;94.94;100818.78;4984655;28;20254;-63
2022/10/12 11:25:01;;;;;;;11.80;6.13;;;;;;;14.24;97.42;100820.25;5003999;28;20167;-67
2022/10/12 11:27:35;;;;;;;16.97;6.30;;;;;;;14.34;95.24;100808.44;5014778;28;20256;-67
2022/10/12 11:30:05;;;;;;;13.83;6.40;;;;;;;14.57;95.82;100808.00;5001415;28;20238;-67
2022/10/12 11:32:36;;;;;;;15.83;6.83;;;;;;;14.89;95.76;100807.81;4952201;28;20285;-66
2022/10/12 11:35:04;;;;;;;12.53;5.83;;;;;;;15.36;91.59;100803.19;5006991;28;20185;-67